sensor_id;sensor_type;location;lat;lon;timestamp;temperature;humidity
7846;DHT22;3968;51.424;6.788;2024-01-06T00:01:11;8.10;99.90
7846;DHT22;3968;51.424;6.788;2024-01-06T00:03:37;8.10;99.90
7846;DHT22;3968;51.424;6.788;2024-01-06T00:06:03;8.10;99.90
7846;DHT22;3968;51.424;6.788;2024-01-06T00:08:29;8.10;99.90
7846;DHT22;3968;51.424;6.788;2024-01-06T00:10:54;8.20;99.90
7846;DHT22;3968;51.424;6.788;2024-01-06T00:13:20;8.20;99.90
7846;DHT22;3968;51.424;6.788;2024-01-06T00:15:46;8.10;99.90
7846;DHT22;3968;51.424;6.788;2024-01-06T00:18:11;8.10;99.90
7846;DHT22;3968;51.424;6.788;2024-01-06T00:20:37;8.10;99.90
7846;DHT22;3968;51.424;6.788;2024-01-06T00:23:03;8.10;99.90
7846;DHT22;3968;51.424;6.788;2024-01-06T00:25:29;8.10;99.90
7846;DHT22;3968;51.424;6.788;2024-01-06T00:27:54;8.00;99.90
7846;DHT22;3968;51.424;6.788;2024-01-06T00:30:20;8.00;99.90
7846;DHT22;3968;51.424;6.788;2024-01-06T00:32:45;8.00;99.90
7846;DHT22;3968;51.424;6.788;2024-01-06T00:35:11;8.10;99.90
7846;DHT22;3968;51.424;6.788;2024-01-06T00:37:37;8.10;99.90
7846;DHT22;3968;51.424;6.788;2024-01-06T00:40:02;8.10;99.90
7846;DHT22;3968;51.424;6.788;2024-01-06T00:42:29;8.10;99.90
7846;DHT22;3968;51.424;6.788;2024-01-06T00:44:55;8.10;99.90
7846;DHT22;3968;51.424;6.788;2024-01-06T00:47:21;8.10;99.90
7846;DHT22;3968;51.424;6.788;2024-01-06T00:49:49;8.00;99.90
7846;DHT22;3968;51.424;6.788;2024-01-06T00:52:15;8.00;99.90
7846;DHT22;3968;51.424;6.788;2024-01-06T00:54:40;8.10;99.90
7846;DHT22;3968;51.424;6.788;2024-01-06T00:57:06;8.10;99.90
7846;DHT22;3968;51.424;6.788;2024-01-06T00:59:32;8.10;99.90
7846;DHT22;3968;51.424;6.788;2024-01-06T01:01:57;8.20;99.90
7846;DHT22;3968;51.424;6.788;2024-01-06T01:04:23;8.20;99.90
7846;DHT22;3968;51.424;6.788;2024-01-06T01:06:48;8.10;99.90
7846;DHT22;3968;51.424;6.788;2024-01-06T01:09:14;8.10;99.90
7846;DHT22;3968;51.424;6.788;2024-01-06T01:11:40;8.20;99.90
7846;DHT22;3968;51.424;6.788;2024-01-06T01:14:06;8.10;99.90
7846;DHT22;3968;51.424;6.788;2024-01-06T01:16:32;8.10;99.90
7846;DHT22;3968;51.424;6.788;2024-01-06T01:18:58;8.10;99.90
7846;DHT22;3968;51.424;6.788;2024-01-06T01:21:23;8.10;99.90
7846;DHT22;3968;51.424;6.788;2024-01-06T01:23:49;8.10;99.90
7846;DHT22;3968;51.424;6.788;2024-01-06T01:26:15;8.10;99.90
7846;DHT22;3968;51.424;6.788;2024-01-06T01:28:40;8.20;99.90
7846;DHT22;3968;51.424;6.788;2024-01-06T01:31:06;8.20;99.90
7846;DHT22;3968;51.424;6.788;2024-01-06T01:33:32;8.20;99.90
7846;DHT22;3968;51.424;6.788;2024-01-06T01:35:57;8.20;99.90
7846;DHT22;3968;51.424;6.788;2024-01-06T01:38:23;8.20;99.90
7846;DHT22;3968;51.424;6.788;2024-01-06T01:40:49;8.10;99.90
7846;DHT22;3968;51.424;6.788;2024-01-06T01:43:20;8.20;99.90
7846;DHT22;3968;51.424;6.788;2024-01-06T01:45:56;8.20;99.90
7846;DHT22;3968;51.424;6.788;2024-01-06T01:48:22;8.20;99.90
7846;DHT22;3968;51.424;6.788;2024-01-06T01:50:49;8.20;99.90
7846;DHT22;3968;51.424;6.788;2024-01-06T01:53:16;8.10;99.90
7846;DHT22;3968;51.424;6.788;2024-01-06T01:55:42;8.20;99.90
7846;DHT22;3968;51.424;6.788;2024-01-06T01:58:10;8.20;99.90
7846;DHT22;3968;51.424;6.788;2024-01-06T02:00:36;8.20;99.90
7846;DHT22;3968;51.424;6.788;2024-01-06T02:03:04;8.10;99.90
7846;DHT22;3968;51.424;6.788;2024-01-06T02:05:30;8.10;99.90
7846;DHT22;3968;51.424;6.788;2024-01-06T02:07:56;8.10;99.90
7846;DHT22;3968;51.424;6.788;2024-01-06T02:10:22;8.10;99.90
7846;DHT22;3968;51.424;6.788;2024-01-06T02:12:49;8.10;99.90
7846;DHT22;3968;51.424;6.788;2024-01-06T02:15:17;8.20;99.90
7846;DHT22;3968;51.424;6.788;2024-01-06T02:17:43;8.10;99.90
7846;DHT22;3968;51.424;6.788;2024-01-06T02:20:09;8.20;99.90
7846;DHT22;3968;51.424;6.788;2024-01-06T02:22:38;8.10;99.90
7846;DHT22;3968;51.424;6.788;2024-01-06T02:25:05;8.20;99.90
7846;DHT22;3968;51.424;6.788;2024-01-06T02:27:40;8.20;99.90
7846;DHT22;3968;51.424;6.788;2024-01-06T02:30:06;8.10;99.90
7846;DHT22;3968;51.424;6.788;2024-01-06T02:32:33;8.20;99.90
7846;DHT22;3968;51.424;6.788;2024-01-06T02:34:58;8.20;99.90
7846;DHT22;3968;51.424;6.788;2024-01-06T02:37:24;8.20;99.90
7846;DHT22;3968;51.424;6.788;2024-01-06T02:39:50;8.20;99.90
7846;DHT22;3968;51.424;6.788;2024-01-06T02:42:16;8.10;99.90
7846;DHT22;3968;51.424;6.788;2024-01-06T02:44:42;8.20;99.90
7846;DHT22;3968;51.424;6.788;2024-01-06T02:47:07;8.10;99.90
7846;DHT22;3968;51.424;6.788;2024-01-06T02:49:33;8.10;99.90
7846;DHT22;3968;51.424;6.788;2024-01-06T02:51:59;8.10;99.90
7846;DHT22;3968;51.424;6.788;2024-01-06T02:54:24;8.10;99.90
7846;DHT22;3968;51.424;6.788;2024-01-06T02:56:50;8.10;99.90
7846;DHT22;3968;51.424;6.788;2024-01-06T02:59:15;8.10;99.90
7846;DHT22;3968;51.424;6.788;2024-01-06T03:01:41;8.10;99.90
7846;DHT22;3968;51.424;6.788;2024-01-06T03:04:06;8.10;99.90
7846;DHT22;3968;51.424;6.788;2024-01-06T03:06:34;8.00;99.90
7846;DHT22;3968;51.424;6.788;2024-01-06T03:08:59;8.00;99.90
7846;DHT22;3968;51.424;6.788;2024-01-06T03:11:25;8.00;99.90
7846;DHT22;3968;51.424;6.788;2024-01-06T03:13:51;8.00;99.90
7846;DHT22;3968;51.424;6.788;2024-01-06T03:16:16;8.00;99.90
7846;DHT22;3968;51.424;6.788;2024-01-06T03:18:42;7.90;99.90
7846;DHT22;3968;51.424;6.788;2024-01-06T03:21:17;8.00;99.90
7846;DHT22;3968;51.424;6.788;2024-01-06T03:23:43;7.90;99.90
7846;DHT22;3968;51.424;6.788;2024-01-06T03:26:09;7.80;99.90
7846;DHT22;3968;51.424;6.788;2024-01-06T03:28:34;7.70;99.90
7846;DHT22;3968;51.424;6.788;2024-01-06T03:31:00;7.70;99.90
7846;DHT22;3968;51.424;6.788;2024-01-06T03:33:25;7.60;99.90
7846;DHT22;3968;51.424;6.788;2024-01-06T03:35:51;7.60;99.90
7846;DHT22;3968;51.424;6.788;2024-01-06T03:38:16;7.50;99.90
7846;DHT22;3968;51.424;6.788;2024-01-06T03:40:42;7.50;99.90
7846;DHT22;3968;51.424;6.788;2024-01-06T03:43:08;7.50;99.90
7846;DHT22;3968;51.424;6.788;2024-01-06T03:45:33;7.50;99.90
7846;DHT22;3968;51.424;6.788;2024-01-06T03:47:59;7.50;99.90
7846;DHT22;3968;51.424;6.788;2024-01-06T03:50:24;7.50;99.90
7846;DHT22;3968;51.424;6.788;2024-01-06T03:52:50;7.50;99.90
7846;DHT22;3968;51.424;6.788;2024-01-06T03:55:16;7.50;99.90
7846;DHT22;3968;51.424;6.788;2024-01-06T03:57:42;7.40;99.90
7846;DHT22;3968;51.424;6.788;2024-01-06T04:00:08;7.40;99.90
7846;DHT22;3968;51.424;6.788;2024-01-06T04:02:34;7.30;99.90
7846;DHT22;3968;51.424;6.788;2024-01-06T04:04:59;7.40;99.90
7846;DHT22;3968;51.424;6.788;2024-01-06T04:07:25;7.30;99.90
7846;DHT22;3968;51.424;6.788;2024-01-06T04:09:51;7.20;99.90
7846;DHT22;3968;51.424;6.788;2024-01-06T04:12:16;7.20;99.90
7846;DHT22;3968;51.424;6.788;2024-01-06T04:14:42;7.30;99.90
7846;DHT22;3968;51.424;6.788;2024-01-06T04:17:08;7.30;99.90
7846;DHT22;3968;51.424;6.788;2024-01-06T04:19:33;7.20;99.90
7846;DHT22;3968;51.424;6.788;2024-01-06T04:21:59;7.20;99.90
7846;DHT22;3968;51.424;6.788;2024-01-06T04:24:25;7.20;99.90
7846;DHT22;3968;51.424;6.788;2024-01-06T04:26:51;7.30;99.90
7846;DHT22;3968;51.424;6.788;2024-01-06T04:29:16;7.30;99.90
7846;DHT22;3968;51.424;6.788;2024-01-06T04:31:42;7.30;99.90
7846;DHT22;3968;51.424;6.788;2024-01-06T04:34:07;7.30;99.90
7846;DHT22;3968;51.424;6.788;2024-01-06T04:36:33;7.30;99.90
7846;DHT22;3968;51.424;6.788;2024-01-06T04:38:58;7.30;99.90
7846;DHT22;3968;51.424;6.788;2024-01-06T04:41:24;7.30;99.90
7846;DHT22;3968;51.424;6.788;2024-01-06T04:43:50;7.30;99.90
7846;DHT22;3968;51.424;6.788;2024-01-06T04:46:15;7.30;99.90
7846;DHT22;3968;51.424;6.788;2024-01-06T04:48:41;7.30;99.90
7846;DHT22;3968;51.424;6.788;2024-01-06T04:51:07;7.20;99.90
7846;DHT22;3968;51.424;6.788;2024-01-06T04:53:36;7.20;99.90
7846;DHT22;3968;51.424;6.788;2024-01-06T04:56:01;7.20;99.90
7846;DHT22;3968;51.424;6.788;2024-01-06T04:58:27;7.30;99.90
7846;DHT22;3968;51.424;6.788;2024-01-06T05:00:54;7.30;99.90
7846;DHT22;3968;51.424;6.788;2024-01-06T05:03:19;7.30;99.90
7846;DHT22;3968;51.424;6.788;2024-01-06T05:05:45;7.20;99.90
7846;DHT22;3968;51.424;6.788;2024-01-06T05:08:11;7.20;99.90
7846;DHT22;3968;51.424;6.788;2024-01-06T05:10:36;7.20;99.90
7846;DHT22;3968;51.424;6.788;2024-01-06T05:13:02;7.20;99.90
7846;DHT22;3968;51.424;6.788;2024-01-06T05:15:28;7.10;99.90
7846;DHT22;3968;51.424;6.788;2024-01-06T05:17:54;7.10;99.90
7846;DHT22;3968;51.424;6.788;2024-01-06T05:20:20;7.20;99.90
7846;DHT22;3968;51.424;6.788;2024-01-06T05:22:45;7.20;99.90
7846;DHT22;3968;51.424;6.788;2024-01-06T05:25:11;7.20;99.90
7846;DHT22;3968;51.424;6.788;2024-01-06T05:27:36;7.20;99.90
7846;DHT22;3968;51.424;6.788;2024-01-06T05:30:02;7.20;99.90
7846;DHT22;3968;51.424;6.788;2024-01-06T05:32:28;7.20;99.90
7846;DHT22;3968;51.424;6.788;2024-01-06T05:34:54;7.20;99.90
7846;DHT22;3968;51.424;6.788;2024-01-06T05:37:19;7.20;99.90
7846;DHT22;3968;51.424;6.788;2024-01-06T05:39:45;7.20;99.90
7846;DHT22;3968;51.424;6.788;2024-01-06T05:42:11;7.20;99.90
7846;DHT22;3968;51.424;6.788;2024-01-06T05:44:38;7.10;99.90
7846;DHT22;3968;51.424;6.788;2024-01-06T05:47:04;7.20;99.90
7846;DHT22;3968;51.424;6.788;2024-01-06T05:49:30;7.20;99.90
7846;DHT22;3968;51.424;6.788;2024-01-06T05:51:55;7.10;99.90
7846;DHT22;3968;51.424;6.788;2024-01-06T05:54:21;7.10;99.90
7846;DHT22;3968;51.424;6.788;2024-01-06T05:56:47;7.10;99.90
7846;DHT22;3968;51.424;6.788;2024-01-06T05:59:12;7.10;99.90
7846;DHT22;3968;51.424;6.788;2024-01-06T06:01:38;7.10;99.90
7846;DHT22;3968;51.424;6.788;2024-01-06T06:04:03;7.10;99.90
7846;DHT22;3968;51.424;6.788;2024-01-06T06:06:30;7.10;99.90
7846;DHT22;3968;51.424;6.788;2024-01-06T06:08:55;7.10;99.90
7846;DHT22;3968;51.424;6.788;2024-01-06T06:11:21;7.20;99.90
7846;DHT22;3968;51.424;6.788;2024-01-06T06:13:47;7.10;99.90
7846;DHT22;3968;51.424;6.788;2024-01-06T06:16:12;7.10;99.90
7846;DHT22;3968;51.424;6.788;2024-01-06T06:18:38;7.10;99.90
7846;DHT22;3968;51.424;6.788;2024-01-06T06:21:05;7.10;99.90
7846;DHT22;3968;51.424;6.788;2024-01-06T06:23:31;7.10;99.90
7846;DHT22;3968;51.424;6.788;2024-01-06T06:25:57;7.00;99.90
7846;DHT22;3968;51.424;6.788;2024-01-06T06:28:23;7.00;99.90
7846;DHT22;3968;51.424;6.788;2024-01-06T06:30:49;7.10;99.90
7846;DHT22;3968;51.424;6.788;2024-01-06T06:33:14;7.00;99.90
7846;DHT22;3968;51.424;6.788;2024-01-06T06:35:40;7.00;99.90
7846;DHT22;3968;51.424;6.788;2024-01-06T06:38:06;6.90;99.90
7846;DHT22;3968;51.424;6.788;2024-01-06T06:40:31;7.00;99.90
7846;DHT22;3968;51.424;6.788;2024-01-06T06:42:57;6.90;99.90
7846;DHT22;3968;51.424;6.788;2024-01-06T06:45:22;6.90;99.90
7846;DHT22;3968;51.424;6.788;2024-01-06T06:47:49;6.90;99.90
7846;DHT22;3968;51.424;6.788;2024-01-06T06:50:18;7.00;99.90
7846;DHT22;3968;51.424;6.788;2024-01-06T06:52:46;6.80;99.90
7846;DHT22;3968;51.424;6.788;2024-01-06T06:55:12;6.80;99.90
7846;DHT22;3968;51.424;6.788;2024-01-06T06:57:38;6.90;99.90
7846;DHT22;3968;51.424;6.788;2024-01-06T07:00:04;6.80;99.90
7846;DHT22;3968;51.424;6.788;2024-01-06T07:02:33;6.80;99.90
7846;DHT22;3968;51.424;6.788;2024-01-06T07:04:58;6.90;99.90
7846;DHT22;3968;51.424;6.788;2024-01-06T07:07:24;6.90;99.90
7846;DHT22;3968;51.424;6.788;2024-01-06T07:09:49;6.80;99.90
7846;DHT22;3968;51.424;6.788;2024-01-06T07:12:15;6.80;99.90
7846;DHT22;3968;51.424;6.788;2024-01-06T07:14:41;6.80;99.90
7846;DHT22;3968;51.424;6.788;2024-01-06T07:17:06;6.80;99.90
7846;DHT22;3968;51.424;6.788;2024-01-06T07:19:32;6.70;99.90
7846;DHT22;3968;51.424;6.788;2024-01-06T07:21:57;6.70;99.90
7846;DHT22;3968;51.424;6.788;2024-01-06T07:24:23;6.60;99.90
7846;DHT22;3968;51.424;6.788;2024-01-06T07:26:49;6.60;99.90
7846;DHT22;3968;51.424;6.788;2024-01-06T07:29:14;6.70;99.90
7846;DHT22;3968;51.424;6.788;2024-01-06T07:31:40;6.70;99.90
7846;DHT22;3968;51.424;6.788;2024-01-06T07:34:05;6.60;99.90
7846;DHT22;3968;51.424;6.788;2024-01-06T07:36:31;6.60;99.90
7846;DHT22;3968;51.424;6.788;2024-01-06T07:38:57;6.60;99.90
7846;DHT22;3968;51.424;6.788;2024-01-06T07:41:23;6.60;99.90
7846;DHT22;3968;51.424;6.788;2024-01-06T07:43:48;6.60;99.90
7846;DHT22;3968;51.424;6.788;2024-01-06T07:46:14;6.60;99.90
7846;DHT22;3968;51.424;6.788;2024-01-06T07:48:40;6.60;99.90
7846;DHT22;3968;51.424;6.788;2024-01-06T07:51:05;6.60;99.90
7846;DHT22;3968;51.424;6.788;2024-01-06T07:53:31;6.60;99.90
7846;DHT22;3968;51.424;6.788;2024-01-06T07:55:56;6.60;99.90
7846;DHT22;3968;51.424;6.788;2024-01-06T07:58:22;6.60;99.90
7846;DHT22;3968;51.424;6.788;2024-01-06T08:00:48;6.60;99.90
7846;DHT22;3968;51.424;6.788;2024-01-06T08:03:13;6.60;99.90
7846;DHT22;3968;51.424;6.788;2024-01-06T08:05:39;6.60;99.90
7846;DHT22;3968;51.424;6.788;2024-01-06T08:08:07;6.60;99.90
7846;DHT22;3968;51.424;6.788;2024-01-06T08:10:33;6.60;99.90
7846;DHT22;3968;51.424;6.788;2024-01-06T08:12:58;6.70;99.90
7846;DHT22;3968;51.424;6.788;2024-01-06T08:15:24;6.70;99.90
7846;DHT22;3968;51.424;6.788;2024-01-06T08:17:50;6.70;99.90
7846;DHT22;3968;51.424;6.788;2024-01-06T08:20:15;6.70;99.90
7846;DHT22;3968;51.424;6.788;2024-01-06T08:22:41;6.60;99.90
7846;DHT22;3968;51.424;6.788;2024-01-06T08:25:07;6.60;99.90
7846;DHT22;3968;51.424;6.788;2024-01-06T08:27:33;6.50;99.90
7846;DHT22;3968;51.424;6.788;2024-01-06T08:29:59;6.50;99.90
7846;DHT22;3968;51.424;6.788;2024-01-06T08:32:25;6.50;99.90
7846;DHT22;3968;51.424;6.788;2024-01-06T08:34:50;6.40;99.90
7846;DHT22;3968;51.424;6.788;2024-01-06T08:37:16;6.40;99.90
7846;DHT22;3968;51.424;6.788;2024-01-06T08:39:41;6.30;99.90
7846;DHT22;3968;51.424;6.788;2024-01-06T08:42:07;6.30;99.90
7846;DHT22;3968;51.424;6.788;2024-01-06T08:44:33;6.30;99.90
7846;DHT22;3968;51.424;6.788;2024-01-06T08:46:59;6.30;99.90
7846;DHT22;3968;51.424;6.788;2024-01-06T08:49:24;6.30;99.90
7846;DHT22;3968;51.424;6.788;2024-01-06T08:51:50;6.30;99.90
7846;DHT22;3968;51.424;6.788;2024-01-06T08:54:16;6.20;99.90
7846;DHT22;3968;51.424;6.788;2024-01-06T08:56:41;6.30;99.90
7846;DHT22;3968;51.424;6.788;2024-01-06T08:59:07;6.30;99.90
7846;DHT22;3968;51.424;6.788;2024-01-06T09:01:32;6.30;99.90
7846;DHT22;3968;51.424;6.788;2024-01-06T09:04:01;6.20;99.90
7846;DHT22;3968;51.424;6.788;2024-01-06T09:06:27;6.20;99.90
7846;DHT22;3968;51.424;6.788;2024-01-06T09:08:52;6.20;99.90
7846;DHT22;3968;51.424;6.788;2024-01-06T09:11:18;6.20;99.90
7846;DHT22;3968;51.424;6.788;2024-01-06T09:13:43;6.20;99.90
7846;DHT22;3968;51.424;6.788;2024-01-06T09:16:09;6.20;99.90
7846;DHT22;3968;51.424;6.788;2024-01-06T09:18:36;6.20;99.90
7846;DHT22;3968;51.424;6.788;2024-01-06T09:21:01;6.20;99.90
7846;DHT22;3968;51.424;6.788;2024-01-06T09:23:28;6.20;99.90
7846;DHT22;3968;51.424;6.788;2024-01-06T09:25:54;6.20;99.90
7846;DHT22;3968;51.424;6.788;2024-01-06T09:28:20;6.20;99.90
7846;DHT22;3968;51.424;6.788;2024-01-06T09:30:47;6.10;99.90
7846;DHT22;3968;51.424;6.788;2024-01-06T09:33:12;6.10;99.90
7846;DHT22;3968;51.424;6.788;2024-01-06T09:35:42;6.10;99.90
7846;DHT22;3968;51.424;6.788;2024-01-06T09:38:09;6.10;99.90
7846;DHT22;3968;51.424;6.788;2024-01-06T09:40:35;6.00;99.90
7846;DHT22;3968;51.424;6.788;2024-01-06T09:43:06;6.00;99.90
7846;DHT22;3968;51.424;6.788;2024-01-06T09:45:32;6.00;99.90
7846;DHT22;3968;51.424;6.788;2024-01-06T09:48:03;5.90;99.90
7846;DHT22;3968;51.424;6.788;2024-01-06T09:50:31;5.90;99.90
7846;DHT22;3968;51.424;6.788;2024-01-06T09:52:58;5.90;99.90
7846;DHT22;3968;51.424;6.788;2024-01-06T09:55:31;5.90;99.90
7846;DHT22;3968;51.424;6.788;2024-01-06T09:57:56;5.90;99.90
7846;DHT22;3968;51.424;6.788;2024-01-06T10:00:22;5.90;99.90
7846;DHT22;3968;51.424;6.788;2024-01-06T10:02:48;5.90;99.90
7846;DHT22;3968;51.424;6.788;2024-01-06T10:05:15;5.80;99.90
7846;DHT22;3968;51.424;6.788;2024-01-06T10:07:45;5.90;99.90
7846;DHT22;3968;51.424;6.788;2024-01-06T10:10:11;5.90;99.90
7846;DHT22;3968;51.424;6.788;2024-01-06T10:12:38;5.90;99.90
7846;DHT22;3968;51.424;6.788;2024-01-06T10:15:05;5.90;99.90
7846;DHT22;3968;51.424;6.788;2024-01-06T10:17:32;5.80;99.90
7846;DHT22;3968;51.424;6.788;2024-01-06T10:19:58;5.90;99.90
7846;DHT22;3968;51.424;6.788;2024-01-06T10:22:24;5.90;99.90
7846;DHT22;3968;51.424;6.788;2024-01-06T10:24:50;5.90;99.90
7846;DHT22;3968;51.424;6.788;2024-01-06T10:27:16;5.90;99.90
7846;DHT22;3968;51.424;6.788;2024-01-06T10:29:41;5.90;99.90
7846;DHT22;3968;51.424;6.788;2024-01-06T10:32:08;5.90;99.90
7846;DHT22;3968;51.424;6.788;2024-01-06T10:34:33;5.90;99.90
7846;DHT22;3968;51.424;6.788;2024-01-06T10:37:02;5.90;99.90
7846;DHT22;3968;51.424;6.788;2024-01-06T10:39:28;5.80;99.90
7846;DHT22;3968;51.424;6.788;2024-01-06T10:41:55;5.80;99.90
7846;DHT22;3968;51.424;6.788;2024-01-06T10:44:21;5.80;99.90
7846;DHT22;3968;51.424;6.788;2024-01-06T10:46:48;5.80;99.90
7846;DHT22;3968;51.424;6.788;2024-01-06T10:49:15;5.80;99.90
7846;DHT22;3968;51.424;6.788;2024-01-06T10:51:44;5.80;99.90
7846;DHT22;3968;51.424;6.788;2024-01-06T10:54:12;5.70;99.90
7846;DHT22;3968;51.424;6.788;2024-01-06T10:56:38;5.60;99.90
7846;DHT22;3968;51.424;6.788;2024-01-06T10:59:04;5.60;99.90
7846;DHT22;3968;51.424;6.788;2024-01-06T11:01:32;5.60;99.90
7846;DHT22;3968;51.424;6.788;2024-01-06T11:03:59;5.60;99.90
7846;DHT22;3968;51.424;6.788;2024-01-06T11:06:25;5.50;99.90
7846;DHT22;3968;51.424;6.788;2024-01-06T11:09:21;5.60;99.90
7846;DHT22;3968;51.424;6.788;2024-01-06T11:11:48;5.60;99.90
7846;DHT22;3968;51.424;6.788;2024-01-06T11:14:25;5.60;99.90
7846;DHT22;3968;51.424;6.788;2024-01-06T11:16:52;5.60;99.90
7846;DHT22;3968;51.424;6.788;2024-01-06T11:24:50;5.60;99.90
7846;DHT22;3968;51.424;6.788;2024-01-06T11:27:28;5.60;99.90
7846;DHT22;3968;51.424;6.788;2024-01-06T11:30:00;5.50;99.90
7846;DHT22;3968;51.424;6.788;2024-01-06T11:32:31;5.50;99.90
7846;DHT22;3968;51.424;6.788;2024-01-06T11:35:28;5.50;99.90
7846;DHT22;3968;51.424;6.788;2024-01-06T11:37:55;5.50;99.90
7846;DHT22;3968;51.424;6.788;2024-01-06T11:42:59;5.50;99.90
7846;DHT22;3968;51.424;6.788;2024-01-06T11:45:26;5.50;99.90
7846;DHT22;3968;51.424;6.788;2024-01-06T11:47:55;5.50;99.90
7846;DHT22;3968;51.424;6.788;2024-01-06T11:50:22;5.60;99.90
7846;DHT22;3968;51.424;6.788;2024-01-06T11:52:49;5.60;99.90
7846;DHT22;3968;51.424;6.788;2024-01-06T11:55:18;5.60;99.90
7846;DHT22;3968;51.424;6.788;2024-01-06T11:57:44;5.50;99.90
7846;DHT22;3968;51.424;6.788;2024-01-06T12:00:11;5.60;99.90
7846;DHT22;3968;51.424;6.788;2024-01-06T12:02:37;5.60;99.90
7846;DHT22;3968;51.424;6.788;2024-01-06T12:05:03;5.60;99.90
7846;DHT22;3968;51.424;6.788;2024-01-06T12:07:28;5.60;99.90
7846;DHT22;3968;51.424;6.788;2024-01-06T12:10:02;5.60;99.90
7846;DHT22;3968;51.424;6.788;2024-01-06T12:12:28;5.60;99.90
7846;DHT22;3968;51.424;6.788;2024-01-06T12:14:53;5.60;99.90
7846;DHT22;3968;51.424;6.788;2024-01-06T12:17:20;5.50;99.90
7846;DHT22;3968;51.424;6.788;2024-01-06T12:19:46;5.50;99.90
7846;DHT22;3968;51.424;6.788;2024-01-06T12:22:13;5.50;99.90
7846;DHT22;3968;51.424;6.788;2024-01-06T12:24:39;5.50;99.90
7846;DHT22;3968;51.424;6.788;2024-01-06T12:27:07;5.40;99.90
7846;DHT22;3968;51.424;6.788;2024-01-06T12:29:40;5.50;99.90
7846;DHT22;3968;51.424;6.788;2024-01-06T12:32:07;5.40;99.90
7846;DHT22;3968;51.424;6.788;2024-01-06T12:34:34;5.50;99.90
7846;DHT22;3968;51.424;6.788;2024-01-06T12:37:00;5.50;99.90
7846;DHT22;3968;51.424;6.788;2024-01-06T12:39:28;5.50;99.90
7846;DHT22;3968;51.424;6.788;2024-01-06T12:41:55;5.40;99.90
7846;DHT22;3968;51.424;6.788;2024-01-06T12:44:20;5.40;99.90
7846;DHT22;3968;51.424;6.788;2024-01-06T12:46:47;5.50;99.90
7846;DHT22;3968;51.424;6.788;2024-01-06T12:49:13;5.40;99.90
7846;DHT22;3968;51.424;6.788;2024-01-06T12:51:38;5.30;99.90
7846;DHT22;3968;51.424;6.788;2024-01-06T12:54:04;5.30;99.90
7846;DHT22;3968;51.424;6.788;2024-01-06T12:56:30;5.20;99.90
7846;DHT22;3968;51.424;6.788;2024-01-06T12:58:56;5.20;99.90
7846;DHT22;3968;51.424;6.788;2024-01-06T13:01:22;5.20;99.90
7846;DHT22;3968;51.424;6.788;2024-01-06T13:03:48;5.20;99.90
7846;DHT22;3968;51.424;6.788;2024-01-06T13:06:13;5.20;99.90
7846;DHT22;3968;51.424;6.788;2024-01-06T13:08:40;5.10;99.90
7846;DHT22;3968;51.424;6.788;2024-01-06T13:11:05;5.10;99.90
7846;DHT22;3968;51.424;6.788;2024-01-06T13:13:32;5.10;99.90
7846;DHT22;3968;51.424;6.788;2024-01-06T13:15:57;5.00;99.90
7846;DHT22;3968;51.424;6.788;2024-01-06T13:18:23;5.00;99.90
7846;DHT22;3968;51.424;6.788;2024-01-06T13:20:49;4.90;99.90
7846;DHT22;3968;51.424;6.788;2024-01-06T13:23:15;4.90;99.90
7846;DHT22;3968;51.424;6.788;2024-01-06T13:25:41;4.90;99.90
7846;DHT22;3968;51.424;6.788;2024-01-06T13:28:07;4.90;99.90
7846;DHT22;3968;51.424;6.788;2024-01-06T13:30:33;5.00;99.90
7846;DHT22;3968;51.424;6.788;2024-01-06T13:32:59;4.90;99.90
7846;DHT22;3968;51.424;6.788;2024-01-06T13:35:25;4.90;99.90
7846;DHT22;3968;51.424;6.788;2024-01-06T13:37:52;4.90;99.90
7846;DHT22;3968;51.424;6.788;2024-01-06T13:40:18;4.90;99.90
7846;DHT22;3968;51.424;6.788;2024-01-06T13:42:46;4.80;99.90
7846;DHT22;3968;51.424;6.788;2024-01-06T13:45:12;4.80;99.90
7846;DHT22;3968;51.424;6.788;2024-01-06T13:47:39;4.80;99.90
7846;DHT22;3968;51.424;6.788;2024-01-06T13:50:08;4.80;99.90
7846;DHT22;3968;51.424;6.788;2024-01-06T13:52:34;4.80;99.90
7846;DHT22;3968;51.424;6.788;2024-01-06T13:55:01;4.80;99.90
7846;DHT22;3968;51.424;6.788;2024-01-06T13:57:26;4.90;99.90
7846;DHT22;3968;51.424;6.788;2024-01-06T13:59:52;4.80;99.90
7846;DHT22;3968;51.424;6.788;2024-01-06T14:02:18;4.80;99.90
7846;DHT22;3968;51.424;6.788;2024-01-06T14:04:43;4.80;99.90
7846;DHT22;3968;51.424;6.788;2024-01-06T14:07:09;4.80;99.90
7846;DHT22;3968;51.424;6.788;2024-01-06T14:09:36;4.80;99.90
7846;DHT22;3968;51.424;6.788;2024-01-06T14:12:01;4.80;99.90
7846;DHT22;3968;51.424;6.788;2024-01-06T14:14:27;4.70;99.90
7846;DHT22;3968;51.424;6.788;2024-01-06T14:16:53;4.70;99.90
7846;DHT22;3968;51.424;6.788;2024-01-06T14:19:19;4.70;99.90
7846;DHT22;3968;51.424;6.788;2024-01-06T14:21:44;4.70;99.90
7846;DHT22;3968;51.424;6.788;2024-01-06T14:24:10;4.60;99.90
7846;DHT22;3968;51.424;6.788;2024-01-06T14:26:35;4.60;99.90
7846;DHT22;3968;51.424;6.788;2024-01-06T14:29:01;4.60;99.90
7846;DHT22;3968;51.424;6.788;2024-01-06T14:31:27;4.60;99.90
7846;DHT22;3968;51.424;6.788;2024-01-06T14:33:53;4.60;99.90
7846;DHT22;3968;51.424;6.788;2024-01-06T14:36:18;4.50;99.90
7846;DHT22;3968;51.424;6.788;2024-01-06T14:38:44;4.60;99.90
7846;DHT22;3968;51.424;6.788;2024-01-06T14:41:10;4.60;99.90
7846;DHT22;3968;51.424;6.788;2024-01-06T14:43:35;4.60;99.90
7846;DHT22;3968;51.424;6.788;2024-01-06T14:46:01;4.60;99.90
7846;DHT22;3968;51.424;6.788;2024-01-06T14:48:26;4.60;99.90
7846;DHT22;3968;51.424;6.788;2024-01-06T14:50:52;4.60;99.90
7846;DHT22;3968;51.424;6.788;2024-01-06T14:53:18;4.60;99.90
7846;DHT22;3968;51.424;6.788;2024-01-06T14:55:43;4.50;99.90
7846;DHT22;3968;51.424;6.788;2024-01-06T14:58:09;4.50;99.90
7846;DHT22;3968;51.424;6.788;2024-01-06T15:00:36;4.50;99.90
7846;DHT22;3968;51.424;6.788;2024-01-06T15:03:01;4.50;99.90
7846;DHT22;3968;51.424;6.788;2024-01-06T15:05:27;4.50;99.90
7846;DHT22;3968;51.424;6.788;2024-01-06T15:07:56;4.50;99.90
7846;DHT22;3968;51.424;6.788;2024-01-06T15:10:21;4.50;99.90
7846;DHT22;3968;51.424;6.788;2024-01-06T15:12:47;4.50;99.90
7846;DHT22;3968;51.424;6.788;2024-01-06T15:15:13;4.50;99.90
7846;DHT22;3968;51.424;6.788;2024-01-06T15:17:39;4.50;99.90
7846;DHT22;3968;51.424;6.788;2024-01-06T15:20:05;4.50;99.90
7846;DHT22;3968;51.424;6.788;2024-01-06T15:22:31;4.50;99.90
7846;DHT22;3968;51.424;6.788;2024-01-06T15:24:57;4.50;99.90
7846;DHT22;3968;51.424;6.788;2024-01-06T15:27:23;4.50;99.90
7846;DHT22;3968;51.424;6.788;2024-01-06T15:29:48;4.50;99.90
7846;DHT22;3968;51.424;6.788;2024-01-06T15:32:14;4.40;99.90
7846;DHT22;3968;51.424;6.788;2024-01-06T15:34:40;4.40;99.90
7846;DHT22;3968;51.424;6.788;2024-01-06T15:37:05;4.40;99.90
7846;DHT22;3968;51.424;6.788;2024-01-06T15:39:31;4.40;99.90
7846;DHT22;3968;51.424;6.788;2024-01-06T15:41:57;4.50;99.90
7846;DHT22;3968;51.424;6.788;2024-01-06T15:44:22;4.50;99.90
7846;DHT22;3968;51.424;6.788;2024-01-06T15:46:48;4.40;99.90
7846;DHT22;3968;51.424;6.788;2024-01-06T15:49:14;4.40;99.90
7846;DHT22;3968;51.424;6.788;2024-01-06T15:51:40;4.40;99.90
7846;DHT22;3968;51.424;6.788;2024-01-06T15:54:05;4.40;99.90
7846;DHT22;3968;51.424;6.788;2024-01-06T15:56:31;4.40;99.90
7846;DHT22;3968;51.424;6.788;2024-01-06T15:58:57;4.40;99.90
7846;DHT22;3968;51.424;6.788;2024-01-06T16:01:23;4.40;99.90
7846;DHT22;3968;51.424;6.788;2024-01-06T16:03:49;4.40;99.90
7846;DHT22;3968;51.424;6.788;2024-01-06T16:06:15;4.40;99.90
7846;DHT22;3968;51.424;6.788;2024-01-06T16:08:40;4.30;99.90
7846;DHT22;3968;51.424;6.788;2024-01-06T16:11:06;4.30;99.90
7846;DHT22;3968;51.424;6.788;2024-01-06T16:13:32;4.30;99.90
7846;DHT22;3968;51.424;6.788;2024-01-06T16:15:57;4.40;99.90
7846;DHT22;3968;51.424;6.788;2024-01-06T16:18:23;4.30;99.90